Airfield :
LOGIN :

Register | Disclaimer

   EN    FR    IT 

 










Legend :    VFR   Marginal VFR   IFR   Intensive IFR   Very Intensive IFR
Visi :
Ceiling :
>= 8 km
>= 3000ft
5 to 8 km
1000 to 3000 ft
1500m to 5 km
500 to 1000 ft
800 to 1500m
200 to 500 ft
< 800m
< 200 ft
Symbols :   Thunderstorms  Fog  Heavy snow  Heavy precipitations  Wind > 20 kt
SIGMETs :     Misc.  Thunderstorms  Icing  Turbulence  Mountain Waves  Volcanic Ashes






- Airport Elevation : 74 ft
- IATA code : LRH


LFBH - La Rochelle Ile de Ré

CURRENT METAR :
  • 282130Z AUTO 27013KT 9999 FEW035 SCT220 10/07 Q1015 TEMPO 28015G25KT 4000 SHRA BKN030TCU

EXPIRED METARs :
  • 282100Z AUTO 27014KT 9999 FEW030 SCT040 OVC220 10/07 Q1015 TEMPO 28015G25KT 4000 SHRA BKN030TCU
  • 282030Z AUTO 26014KT 9999 FEW025 BKN033 BKN045 10/07 Q1015 TEMPO 28015G25KT 4000 SHRA BKN030TCU
  • 282000Z AUTO 28017KT 9999 SCT035/// BKN049/// OVC060/// ///TCU 10/06 Q1015 TEMPO 28015G25KT 4000 SHRA
  • 281930Z AUTO 28017G32KT 9999 SCT020/// BKN026/// BKN052/// ///TCU 10/07 Q1015 TEMPO 4000 SHRA
  • 281900Z AUTO 28022KT 9999 -RA BKN025/// BKN035/// OVC050/// ///CB 10/07 Q1014 TEMPO 28015G25KT 4000 SHRA

TAF TAF LFBH
Valid from the 28 at 18:00 until the 29 at 18:00 UTC


281700Z 2818/2918 27015KT 9999 BKN030
TEMPO 2818/2820 27020G40KT 2000 SHRA BKN020TCU
TEMPO 2820/2901 28015G25KT 4000 SHRA BKN030TCU
BECMG 2901/2903 28010KT
TEMPO 2901/2907 4500 -SHRA SCT030TCU
BECMG 2912/2914 21010KT
ATIS : +33 5 46 00 13 92



MET'MAP, your aeronautical weather chart ! - Copyright ORBIFLY December 2007 - Disclaimer

ORBIFLY MET'MAP TEAM :

Programming & Development : Alexandra Zaïnal
Concept & original design : Baudouin d'Aumeries
Assistance for programming : Marc-Olivier Méhu
Technical & hardware support : Manuel Goepfert

Contact : metmap@orbifly.com




SOURCES & CREDITS :

   NOAA